Time;durP1;ratioP1;P1;durP2;ratioP2;P2;SDS_P1;SDS_P2;PMS_P1;PMS_P2;Temp;Humidity;BMP_temperature;BMP_pressure;BME280_temperature;BME280_humidity;BME280_pressure;Samples;Min_cycle;Max_cycle;Signal;HPM_P1;HPM_P2
2021/03/08 00:01:16;;;;;;;25.20;14.47;;;9.80;99.90;;;;;;4971629;28;20217;-78
2021/03/08 00:03:43;;;;;;;19.50;15.00;;;9.80;99.90;;;;;;4971321;28;20221;-79
2021/03/08 00:06:09;;;;;;;23.17;14.27;;;9.80;99.90;;;;;;4971501;28;20233;-75
2021/03/08 00:08:35;;;;;;;18.87;13.33;;;9.90;99.90;;;;;;4971656;28;20217;-74
2021/03/08 00:11:02;;;;;;;19.43;14.27;;;9.90;99.90;;;;;;4971389;28;20614;-77
2021/03/08 00:13:28;;;;;;;20.67;14.27;;;9.80;99.90;;;;;;4971534;28;20209;-76
2021/03/08 00:15:55;;;;;;;31.97;15.60;;;9.90;99.90;;;;;;4972066;28;20213;-76
2021/03/08 00:18:22;;;;;;;22.90;16.70;;;9.90;99.90;;;;;;4971097;28;20209;-77
2021/03/08 00:20:49;;;;;;;27.13;15.53;;;9.80;99.90;;;;;;4971707;28;20213;-77
2021/03/08 00:23:15;;;;;;;20.37;14.03;;;9.70;99.90;;;;;;4971627;28;20206;-78
2021/03/08 00:25:42;;;;;;;17.67;14.00;;;9.60;99.90;;;;;;4971668;28;20206;-78
2021/03/08 00:28:08;;;;;;;19.83;14.43;;;9.60;99.90;;;;;;4971490;28;20217;-76
2021/03/08 00:30:34;;;;;;;20.90;14.97;;;9.60;99.90;;;;;;4971420;28;20717;-77
2021/03/08 00:33:01;;;;;;;21.70;13.83;;;9.60;99.90;;;;;;4970933;28;20685;-76
2021/03/08 00:35:28;;;;;;;25.20;15.17;;;9.60;99.90;;;;;;4971920;28;20662;-77
2021/03/08 00:37:55;;;;;;;18.20;13.37;;;9.50;99.90;;;;;;4971651;28;20213;-77
2021/03/08 00:40:22;;;;;;;20.37;14.23;;;9.50;99.90;;;;;;4971336;28;20210;-76
2021/03/08 00:42:49;;;;;;;20.30;13.27;;;9.50;99.90;;;;;;4971593;28;20630;-74
2021/03/08 00:45:17;;;;;;;18.97;13.80;;;9.50;99.90;;;;;;4971173;28;20212;-76
2021/03/08 00:47:44;;;;;;;21.30;13.10;;;9.50;99.90;;;;;;4971328;28;20212;-75
2021/03/08 00:50:14;;;;;;;21.97;13.27;;;9.40;99.90;;;;;;4971155;28;20335;-77
2021/03/08 00:52:42;;;;;;;22.87;13.13;;;9.50;99.90;;;;;;4971294;28;20607;-76
2021/03/08 00:55:10;;;;;;;22.67;14.23;;;9.50;99.90;;;;;;4971097;28;20589;-75
2021/03/08 00:57:36;;;;;;;23.03;14.47;;;9.50;99.90;;;;;;4971507;28;20210;-75
2021/03/08 01:00:06;;;;;;;20.23;13.43;;;9.40;99.90;;;;;;4970794;28;20213;-78
2021/03/08 01:02:33;;;;;;;18.60;13.40;;;9.30;99.90;;;;;;4974569;28;20221;-75
2021/03/08 01:04:59;;;;;;;23.60;14.67;;;9.20;99.90;;;;;;4974624;28;20594;-77
2021/03/08 01:07:26;;;;;;;21.27;13.63;;;9.30;99.90;;;;;;4975328;28;20709;-77
2021/03/08 01:09:53;;;;;;;21.70;13.87;;;9.20;99.90;;;;;;4975101;28;20240;-77
2021/03/08 01:12:20;;;;;;;18.63;13.43;;;9.20;99.90;;;;;;4974237;28;20670;-77
2021/03/08 01:14:47;;;;;;;19.90;13.40;;;9.10;99.90;;;;;;4975213;28;20613;-76
2021/03/08 01:17:14;;;;;;;20.00;13.83;;;9.10;99.90;;;;;;4974333;28;20206;-77
2021/03/08 01:19:40;;;;;;;20.07;14.53;;;9.00;99.90;;;;;;4975261;28;20211;-76
2021/03/08 01:22:07;;;;;;;20.10;14.10;;;9.00;99.90;;;;;;4974591;28;20284;-77
2021/03/08 01:24:33;;;;;;;20.10;13.90;;;8.80;99.90;;;;;;4974689;28;20585;-76
2021/03/08 01:27:00;;;;;;;23.83;16.00;;;8.70;99.90;;;;;;4974451;28;20241;-77
2021/03/08 01:29:27;;;;;;;25.67;15.23;;;8.60;99.90;;;;;;4974798;28;20620;-76
2021/03/08 01:31:53;;;;;;;21.43;15.43;;;8.60;99.90;;;;;;4974638;28;20674;-77
2021/03/08 01:34:20;;;;;;;19.07;13.87;;;8.50;99.90;;;;;;4974023;28;20206;-76
2021/03/08 01:36:46;;;;;;;21.47;14.47;;;8.50;99.90;;;;;;4974533;28;20380;-74
2021/03/08 01:39:13;;;;;;;23.80;13.87;;;8.50;99.90;;;;;;4973704;28;20218;-76
2021/03/08 01:41:39;;;;;;;20.77;14.27;;;8.50;99.90;;;;;;4974131;28;20213;-76
2021/03/08 01:44:07;;;;;;;23.70;13.80;;;8.50;99.90;;;;;;4973762;28;20294;-77
2021/03/08 01:46:33;;;;;;;24.67;14.30;;;8.60;99.90;;;;;;4974088;28;20704;-77
2021/03/08 01:49:00;;;;;;;23.37;14.27;;;8.60;99.90;;;;;;4974143;28;20206;-79
2021/03/08 01:51:26;;;;;;;20.00;12.80;;;8.50;99.90;;;;;;4974271;28;20244;-76
2021/03/08 01:53:53;;;;;;;24.33;14.20;;;8.60;99.90;;;;;;4974662;28;20217;-78
2021/03/08 01:56:20;;;;;;;22.77;14.57;;;8.60;99.90;;;;;;4973746;28;20209;-76
2021/03/08 01:58:46;;;;;;;22.77;14.30;;;8.60;99.90;;;;;;4974343;28;20202;-77
2021/03/08 02:01:14;;;;;;;22.17;14.90;;;8.80;99.90;;;;;;4973726;28;20210;-77
2021/03/08 02:03:40;;;;;;;23.93;15.63;;;8.90;99.90;;;;;;4973786;28;20206;-76
2021/03/08 02:06:07;;;;;;;21.93;14.33;;;9.00;99.90;;;;;;4973673;28;20229;-76
2021/03/08 02:08:34;;;;;;;18.37;13.33;;;9.10;99.90;;;;;;4973923;28;20268;-77
2021/03/08 02:11:00;;;;;;;19.67;14.20;;;9.10;99.90;;;;;;4973843;28;20281;-78
2021/03/08 02:14:14;;;;;;;24.13;16.60;;;9.20;99.90;;;;;;4972524;28;20603;-78
2021/03/08 02:16:50;;;;;;;18.17;13.23;;;9.20;99.90;;;;;;4973733;28;20214;-79
2021/03/08 02:19:44;;;;;;;18.93;14.00;;;9.20;99.90;;;;;;4973218;28;20205;-78
2021/03/08 02:22:49;;;;;;;30.60;17.67;;;9.30;99.90;;;;;;4973381;28;20210;-77
2021/03/08 02:25:36;;;;;;;22.37;16.10;;;9.20;99.90;;;;;;4971579;28;20202;-76
2021/03/08 02:28:28;;;;;;;25.03;16.20;;;9.10;99.90;;;;;;4973356;28;20210;-78
2021/03/08 02:31:01;;;;;;;23.67;14.90;;;9.10;99.90;;;;;;4973751;28;20233;-75
2021/03/08 02:33:31;;;;;;;20.50;13.00;;;9.10;99.90;;;;;;4973165;28;20208;-77
2021/03/08 02:36:01;;;;;;;21.53;14.90;;;9.10;99.90;;;;;;4973024;28;20221;-75
2021/03/08 02:38:31;;;;;;;20.90;14.67;;;9.20;99.90;;;;;;4973509;28;20652;-77
2021/03/08 02:41:01;;;;;;;18.67;14.07;;;9.30;99.90;;;;;;4973589;28;20213;-76
2021/03/08 02:43:32;;;;;;;19.03;14.03;;;9.30;99.90;;;;;;4973273;28;20217;-80
2021/03/08 02:46:05;;;;;;;21.83;13.10;;;9.40;99.90;;;;;;4973371;28;20209;-77
2021/03/08 02:48:33;;;;;;;18.47;12.30;;;9.30;99.90;;;;;;4973414;28;20205;-79
2021/03/08 02:51:03;;;;;;;23.93;19.80;;;9.30;99.90;;;;;;4973028;28;20237;-76
2021/03/08 02:53:33;;;;;;;28.93;17.83;;;9.10;99.90;;;;;;4973075;28;20212;-75
2021/03/08 02:56:02;;;;;;;25.97;19.13;;;9.10;99.90;;;;;;4972849;28;20209;-75
2021/03/08 02:58:33;;;;;;;27.53;18.60;;;9.10;99.90;;;;;;4972672;28;20228;-75
2021/03/08 03:01:02;;;;;;;26.37;19.10;;;9.10;99.90;;;;;;4972510;28;20201;-75
2021/03/08 03:03:31;;;;;;;27.00;18.57;;;9.20;99.90;;;;;;4972817;28;20205;-76
2021/03/08 03:06:01;;;;;;;32.10;22.63;;;9.20;99.90;;;;;;4973021;28;20637;-77
2021/03/08 03:08:29;;;;;;;28.83;21.50;;;9.10;99.90;;;;;;4972555;28;20224;-78
2021/03/08 03:10:56;;;;;;;30.63;21.80;;;9.10;99.90;;;;;;4972912;28;20229;-77
2021/03/08 03:13:24;;;;;;;25.50;21.00;;;9.10;99.90;;;;;;4972348;28;20217;-77
2021/03/08 03:15:52;;;;;;;29.87;20.57;;;9.10;99.90;;;;;;4972928;28;20201;-77
2021/03/08 03:18:21;;;;;;;31.63;21.33;;;9.20;99.90;;;;;;4972377;28;20244;-77
2021/03/08 03:20:50;;;;;;;29.97;20.40;;;9.20;99.90;;;;;;4972587;28;20213;-77
2021/03/08 03:23:16;;;;;;;26.37;19.37;;;9.20;99.90;;;;;;4972088;28;20206;-77
2021/03/08 03:25:45;;;;;;;29.23;19.70;;;9.20;99.90;;;;;;4971983;28;20264;-77
2021/03/08 03:28:12;;;;;;;27.23;19.73;;;9.20;99.90;;;;;;4972151;28;20213;-77
2021/03/08 03:30:39;;;;;;;32.83;20.07;;;9.20;99.90;;;;;;4972275;28;20241;-77
2021/03/08 03:33:07;;;;;;;27.90;19.13;;;9.20;99.90;;;;;;4972142;28;20206;-77
2021/03/08 03:35:34;;;;;;;26.87;18.00;;;9.20;99.90;;;;;;4972672;28;20205;-77
2021/03/08 03:38:02;;;;;;;24.20;16.97;;;9.10;99.90;;;;;;4971606;28;20221;-77
2021/03/08 03:40:28;;;;;;;28.00;20.10;;;9.10;99.90;;;;;;4972094;28;20216;-76
2021/03/08 03:42:55;;;;;;;31.80;22.97;;;9.00;99.90;;;;;;4972184;28;20212;-77
2021/03/08 03:45:24;;;;;;;32.10;25.17;;;8.80;99.90;;;;;;4972420;28;20236;-74
2021/03/08 03:47:51;;;;;;;28.40;22.43;;;8.70;99.90;;;;;;4972166;28;20212;-75
2021/03/08 03:50:20;;;;;;;28.67;22.20;;;8.70;99.90;;;;;;4971956;28;20760;-75
2021/03/08 03:52:47;;;;;;;30.73;21.67;;;8.60;99.90;;;;;;4971745;28;20214;-76
2021/03/08 03:55:18;;;;;;;32.50;22.87;;;8.60;99.90;;;;;;4971717;28;20553;-78
2021/03/08 03:57:51;;;;;;;32.40;24.40;;;8.60;99.90;;;;;;4971898;28;20619;-77
2021/03/08 04:00:22;;;;;;;28.13;21.67;;;8.60;99.90;;;;;;4971731;28;20222;-77
2021/03/08 04:02:56;;;;;;;28.30;20.50;;;8.70;99.90;;;;;;4971863;28;20256;-76
2021/03/08 04:05:25;;;;;;;25.63;19.73;;;8.80;99.90;;;;;;4971643;28;20201;-75
2021/03/08 04:07:54;;;;;;;26.13;18.80;;;8.90;99.90;;;;;;4972165;28;20232;-76
2021/03/08 04:10:22;;;;;;;22.40;17.30;;;8.80;99.90;;;;;;4971157;28;20233;-76
2021/03/08 04:12:54;;;;;;;24.23;16.23;;;8.80;99.90;;;;;;4972098;28;20210;-76
2021/03/08 04:15:23;;;;;;;22.90;17.57;;;8.70;99.90;;;;;;4971441;28;20208;-76
2021/03/08 04:17:52;;;;;;;22.93;17.73;;;8.80;99.90;;;;;;4971765;28;20213;-78
2021/03/08 04:20:19;;;;;;;25.03;18.33;;;8.80;99.90;;;;;;4971310;28;20210;-74
2021/03/08 04:22:49;;;;;;;26.00;18.73;;;8.80;99.90;;;;;;4972066;28;20237;-74
2021/03/08 04:25:18;;;;;;;22.83;17.13;;;8.90;99.90;;;;;;4970898;28;20264;-74
2021/03/08 04:27:46;;;;;;;26.33;17.57;;;8.80;99.90;;;;;;4971754;28;20212;-74
2021/03/08 04:30:13;;;;;;;22.80;18.07;;;8.80;99.90;;;;;;4970984;28;20225;-74
2021/03/08 04:32:41;;;;;;;22.57;15.43;;;8.70;99.90;;;;;;4971670;28;20205;-74
2021/03/08 04:35:10;;;;;;;21.27;17.53;;;8.70;99.90;;;;;;4971478;28;20228;-74
2021/03/08 04:37:39;;;;;;;28.30;16.67;;;8.70;99.90;;;;;;4974934;28;20595;-74
2021/03/08 04:40:08;;;;;;;22.87;16.47;;;8.60;99.90;;;;;;4975115;28;20213;-74
2021/03/08 04:42:36;;;;;;;20.70;16.00;;;8.60;99.90;;;;;;4975188;28;20220;-75
2021/03/08 04:45:04;;;;;;;22.33;15.90;;;8.60;99.90;;;;;;4975146;28;20205;-76
2021/03/08 04:47:32;;;;;;;23.30;17.07;;;8.60;99.90;;;;;;4975560;28;20209;-75
2021/03/08 04:49:59;;;;;;;21.20;16.43;;;8.60;99.90;;;;;;4975101;28;20235;-76
2021/03/08 04:52:26;;;;;;;22.67;17.07;;;8.70;99.90;;;;;;4975749;28;20210;-77
2021/03/08 04:54:54;;;;;;;26.17;18.80;;;8.70;99.90;;;;;;4975305;28;20212;-77
2021/03/08 04:57:22;;;;;;;27.57;18.60;;;8.70;99.90;;;;;;4974837;28;20213;-77
2021/03/08 04:59:50;;;;;;;20.80;15.83;;;8.60;99.90;;;;;;4974985;28;20220;-76
2021/03/08 05:02:18;;;;;;;26.53;16.00;;;8.60;99.90;;;;;;4974901;28;20217;-76
2021/03/08 05:04:49;;;;;;;18.70;14.77;;;8.60;99.90;;;;;;4975110;28;20205;-76
2021/03/08 05:07:20;;;;;;;24.90;16.13;;;8.70;99.90;;;;;;4974898;28;20220;-75
2021/03/08 05:09:48;;;;;;;20.07;15.73;;;8.80;99.90;;;;;;4974772;28;20610;-76
2021/03/08 05:12:17;;;;;;;20.80;15.37;;;8.90;99.90;;;;;;4974508;28;20221;-77
2021/03/08 05:14:45;;;;;;;21.67;15.20;;;8.90;99.90;;;;;;4975195;28;20299;-77
2021/03/08 05:17:16;;;;;;;24.37;15.67;;;8.90;99.90;;;;;;4974181;28;20210;-77
2021/03/08 05:19:46;;;;;;;25.47;15.70;;;8.80;99.90;;;;;;4975122;28;20260;-77
2021/03/08 05:22:15;;;;;;;20.70;13.93;;;8.90;99.90;;;;;;4974112;28;20206;-75
2021/03/08 05:24:44;;;;;;;24.90;15.60;;;8.90;99.90;;;;;;4974363;28;20218;-77
2021/03/08 05:27:13;;;;;;;23.23;16.37;;;8.90;99.90;;;;;;4974059;28;20665;-76
2021/03/08 05:29:41;;;;;;;21.27;15.27;;;8.80;99.90;;;;;;4974862;28;20221;-76
2021/03/08 05:32:13;;;;;;;18.97;14.53;;;8.80;99.90;;;;;;4974238;28;20245;-77
2021/03/08 05:34:44;;;;;;;20.27;16.37;;;8.80;99.90;;;;;;4974609;28;20201;-77
2021/03/08 05:37:13;;;;;;;24.70;15.40;;;8.90;99.90;;;;;;4973741;28;20689;-77
2021/03/08 05:39:42;;;;;;;24.83;16.23;;;8.90;99.90;;;;;;4974495;28;20201;-76
2021/03/08 05:42:11;;;;;;;19.07;14.30;;;8.80;99.90;;;;;;4974431;28;20218;-77
2021/03/08 05:44:44;;;;;;;24.00;15.97;;;8.80;99.90;;;;;;4974302;28;20256;-77
2021/03/08 05:47:35;;;;;;;22.53;15.87;;;8.80;99.90;;;;;;4973690;28;20210;-77
2021/03/08 05:50:46;;;;;;;25.43;16.10;;;8.70;99.90;;;;;;4960351;28;20753;-78
2021/03/08 05:53:45;;;;;;;24.97;16.50;;;8.70;99.90;;;;;;4875045;29;20208;-77
2021/03/08 05:56:31;;;;;;;23.33;16.10;;;8.80;99.90;;;;;;4973326;28;20587;-77
2021/03/08 05:59:22;;;;;;;24.40;16.27;;;8.90;99.90;;;;;;4974280;28;20310;-77
2021/03/08 06:02:04;;;;;;;22.90;15.53;;;8.90;99.90;;;;;;4973777;28;20586;-77
2021/03/08 06:04:54;;;;;;;26.10;14.53;;;9.00;99.90;;;;;;4974155;28;20678;-78
2021/03/08 06:07:50;;;;;;;20.90;15.03;;;9.10;99.90;;;;;;4973556;28;20205;-78
2021/03/08 06:10:23;;;;;;;20.03;15.57;;;9.10;99.90;;;;;;4973204;28;20659;-78
2021/03/08 06:12:54;;;;;;;25.30;14.77;;;9.20;99.90;;;;;;4974080;28;20289;-78
2021/03/08 06:15:22;;;;;;;20.33;15.77;;;9.20;99.90;;;;;;4973079;28;20674;-78
2021/03/08 06:17:50;;;;;;;20.33;15.97;;;9.10;99.90;;;;;;4974040;28;20287;-78
2021/03/08 06:20:19;;;;;;;23.17;14.60;;;9.00;99.90;;;;;;4973149;28;20685;-78
2021/03/08 06:22:46;;;;;;;23.67;15.57;;;8.90;99.90;;;;;;4973387;28;20201;-77
2021/03/08 06:25:14;;;;;;;22.20;15.77;;;9.00;99.90;;;;;;4972982;28;20213;-78
2021/03/08 06:27:44;;;;;;;24.00;15.33;;;9.10;99.90;;;;;;4971913;28;20221;-77
2021/03/08 06:30:12;;;;;;;26.07;15.83;;;9.10;99.90;;;;;;4972802;28;20252;-77
2021/03/08 06:32:38;;;;;;;19.00;15.57;;;9.10;99.90;;;;;;4973565;28;20224;-77
2021/03/08 06:35:06;;;;;;;22.53;16.17;;;9.10;99.90;;;;;;4973023;28;20214;-77
2021/03/08 06:37:34;;;;;;;18.30;13.83;;;9.20;99.90;;;;;;4973138;28;20644;-77
2021/03/08 06:40:00;;;;;;;20.93;15.83;;;9.30;99.90;;;;;;4972227;28;20206;-77
2021/03/08 06:42:27;;;;;;;23.93;15.57;;;9.40;99.90;;;;;;4973638;28;20209;-77
2021/03/08 06:44:55;;;;;;;20.90;15.57;;;9.30;99.90;;;;;;4973281;28;20674;-79
2021/03/08 06:47:22;;;;;;;25.10;17.00;;;9.30;99.90;;;;;;4972734;28;20292;-77
2021/03/08 06:49:49;;;;;;;23.47;16.73;;;9.30;99.90;;;;;;4972570;28;20232;-81
2021/03/08 06:52:18;;;;;;;22.70;17.10;;;9.40;99.90;;;;;;4972699;28;20748;-81
2021/03/08 06:54:58;;;;;;;21.67;16.77;;;9.40;99.90;;;;;;4973165;28;20213;-78
2021/03/08 06:57:28;;;;;;;26.10;16.83;;;9.30;99.90;;;;;;4973623;28;20205;-80
2021/03/08 06:59:57;;;;;;;25.33;17.17;;;9.20;99.90;;;;;;4972342;28;20221;-79
2021/03/08 07:02:34;;;;;;;22.37;15.60;;;9.20;99.90;;;;;;4973230;28;20232;-80
2021/03/08 07:05:02;;;;;;;23.43;16.27;;;9.30;99.90;;;;;;4972085;28;20228;-80
2021/03/08 07:07:28;;;;;;;23.40;15.43;;;9.30;99.90;;;;;;4973152;28;20225;-79
2021/03/08 07:09:55;;;;;;;27.13;16.30;;;9.40;99.90;;;;;;4973098;28;20206;-77
2021/03/08 07:12:22;;;;;;;25.20;15.50;;;9.50;99.90;;;;;;4972339;28;20241;-77
2021/03/08 07:15:02;;;;;;;20.43;16.43;;;9.50;99.90;;;;;;4972620;28;20596;-77
2021/03/08 07:17:36;;;;;;;18.03;14.97;;;9.50;99.90;;;;;;4972639;28;20704;-78
2021/03/08 07:20:04;;;;;;;21.00;16.13;;;9.50;99.90;;;;;;4971978;28;20217;-78
2021/03/08 07:22:42;;;;;;;22.67;16.13;;;9.50;99.90;;;;;;4972738;28;20249;-77
2021/03/08 07:25:23;;;;;;;26.70;16.67;;;9.60;99.90;;;;;;4972192;28;20209;-79
2021/03/08 07:27:51;;;;;;;23.27;15.83;;;9.60;99.90;;;;;;4972326;28;20201;-77
2021/03/08 07:30:21;;;;;;;25.20;17.13;;;9.60;99.90;;;;;;4973472;28;20213;-76
2021/03/08 07:32:58;;;;;;;19.57;14.00;;;9.50;99.90;;;;;;4969910;28;20217;-77
2021/03/08 07:35:36;;;;;;;17.80;13.93;;;9.50;99.90;;;;;;4972730;28;20209;-77
2021/03/08 07:38:04;;;;;;;20.77;14.27;;;9.40;99.90;;;;;;4970983;28;20312;-77
2021/03/08 07:40:31;;;;;;;21.10;13.43;;;9.40;99.90;;;;;;4971772;28;20209;-78
2021/03/08 07:42:57;;;;;;;19.20;13.63;;;9.40;99.90;;;;;;4972139;28;20209;-77
2021/03/08 07:45:42;;;;;;;21.37;17.00;;;9.40;99.90;;;;;;4972492;28;20257;-76
2021/03/08 07:48:11;;;;;;;24.63;15.47;;;9.40;99.90;;;;;;4971099;28;20348;-76
2021/03/08 07:50:38;;;;;;;23.57;15.37;;;9.50;99.90;;;;;;4971508;28;20225;-78
2021/03/08 07:53:29;;;;;;;28.73;15.30;;;9.60;99.90;;;;;;4969362;28;20670;-78
2021/03/08 07:55:57;;;;;;;20.37;14.00;;;9.60;99.90;;;;;;4965746;28;20547;-77
2021/03/08 07:58:25;;;;;;;22.57;14.77;;;9.70;99.90;;;;;;4971529;28;20205;-78
2021/03/08 08:00:53;;;;;;;15.70;12.53;;;9.70;99.90;;;;;;4971594;28;20213;-78
2021/03/08 08:03:19;;;;;;;20.00;14.17;;;9.90;99.90;;;;;;4970869;28;20220;-79
2021/03/08 08:05:50;;;;;;;22.33;14.17;;;10.00;99.90;;;;;;4971796;28;20698;-78
2021/03/08 08:08:17;;;;;;;21.17;13.97;;;10.50;99.90;;;;;;4971026;28;20209;-80
2021/03/08 08:10:43;;;;;;;20.97;13.40;;;10.50;99.90;;;;;;4970692;28;20276;-80
2021/03/08 08:13:12;;;;;;;22.00;15.87;;;10.80;99.90;;;;;;4966661;28;20209;-80
2021/03/08 08:15:43;;;;;;;16.97;13.17;;;10.90;99.90;;;;;;4971772;28;20214;-81
2021/03/08 08:18:16;;;;;;;16.47;12.37;;;10.80;99.90;;;;;;4968019;28;20712;-80
2021/03/08 08:20:44;;;;;;;27.77;14.80;;;10.90;99.90;;;;;;4970085;28;20614;-79
2021/03/08 08:23:12;;;;;;;18.43;13.00;;;10.90;99.90;;;;;;4970979;28;20213;-78
2021/03/08 08:25:39;;;;;;;19.43;14.50;;;10.80;99.90;;;;;;4971351;28;20213;-79
2021/03/08 08:28:06;;;;;;;23.73;13.67;;;10.70;99.90;;;;;;4971308;28;20205;-78
2021/03/08 08:30:33;;;;;;;16.67;13.43;;;10.60;99.90;;;;;;4966269;28;20222;-82
2021/03/08 08:33:00;;;;;;;20.90;12.97;;;10.90;99.90;;;;;;4970858;28;20209;-80
2021/03/08 08:35:29;;;;;;;25.03;14.27;;;11.00;99.90;;;;;;4972084;28;20209;-80
2021/03/08 08:38:25;;;;;;;20.03;13.00;;;10.90;99.90;;;;;;4971497;28;20221;-80
2021/03/08 08:41:20;;;;;;;20.30;12.77;;;10.80;99.90;;;;;;4971219;28;20583;-80
2021/03/08 08:43:48;;;;;;;18.37;13.67;;;10.90;99.90;;;;;;4971627;28;20213;-81
2021/03/08 08:46:28;;;;;;;24.83;13.13;;;11.10;99.90;;;;;;4970754;28;20244;-81
2021/03/08 08:49:07;;;;;;;15.57;12.73;;;11.10;99.90;;;;;;4962391;28;20330;-79
2021/03/08 08:51:51;;;;;;;22.13;13.80;;;11.20;99.90;;;;;;4968334;28;20240;-80
2021/03/08 08:54:55;;;;;;;20.50;13.10;;;11.10;99.90;;;;;;4970268;28;20209;-78
2021/03/08 08:57:22;;;;;;;24.00;14.90;;;11.40;99.90;;;;;;4964588;28;20259;-78
2021/03/08 09:00:14;;;;;;;20.80;14.17;;;11.40;99.90;;;;;;4970993;28;20678;-77
2021/03/08 09:02:40;;;;;;;23.00;15.23;;;11.50;99.90;;;;;;4955036;28;20292;-79
2021/03/08 09:05:38;;;;;;;19.47;14.83;;;11.50;99.90;;;;;;4970503;28;20217;-77
2021/03/08 09:08:26;;;;;;;21.13;13.37;;;11.60;99.90;;;;;;4970615;28;20296;-78
2021/03/08 09:10:53;;;;;;;20.67;13.03;;;12.40;99.90;;;;;;4971566;28;20225;-78
2021/03/08 09:13:22;;;;;;;16.53;12.53;;;12.60;99.90;;;;;;4970522;28;20213;-80
2021/03/08 09:15:49;;;;;;;20.17;13.30;;;13.40;99.90;;;;;;4970177;28;20237;-77
2021/03/08 09:18:31;;;;;;;14.47;11.53;;;13.70;99.90;;;;;;4968972;28;20206;-81
2021/03/08 09:21:18;;;;;;;19.27;13.50;;;14.40;99.90;;;;;;4964681;28;20257;-78
2021/03/08 09:23:45;;;;;;;19.77;14.18;;;13.50;99.90;;;;;;4971763;28;20202;-79
2021/03/08 09:26:12;;;;;;;16.90;12.57;;;12.90;99.90;;;;;;4973829;28;20214;-76
2021/03/08 09:28:49;;;;;;;18.23;13.77;;;12.80;99.90;;;;;;4974574;28;20209;-75
2021/03/08 09:31:21;;;;;;;15.80;11.30;;;12.90;99.90;;;;;;4972760;28;20233;-78
2021/03/08 09:33:48;;;;;;;14.05;12.55;;;13.10;99.90;;;;;;4974310;28;20210;-79
2021/03/08 09:36:15;;;;;;;18.48;12.77;;;13.40;99.90;;;;;;4974009;28;20205;-79
2021/03/08 09:38:42;;;;;;;13.43;11.32;;;13.00;99.90;;;;;;4974181;28;20255;-81
2021/03/08 09:41:09;;;;;;;19.10;12.98;;;13.20;99.90;;;;;;4974067;28;20210;-76
2021/03/08 09:43:38;;;;;;;14.85;12.05;;;13.30;99.90;;;;;;4973732;28;20624;-80
2021/03/08 09:46:06;;;;;;;17.63;12.77;;;13.40;99.90;;;;;;4973851;28;20210;-75
2021/03/08 09:48:35;;;;;;;17.05;11.98;;;13.40;99.90;;;;;;4974525;28;20205;-80
2021/03/08 09:51:10;;;;;;;14.75;11.13;;;13.30;99.90;;;;;;4973529;28;20816;-76
2021/03/08 09:53:38;;;;;;;16.35;11.45;;;13.30;99.90;;;;;;4974500;28;20212;-76
2021/03/08 09:56:10;;;;;;;14.85;10.88;;;13.40;99.90;;;;;;4974034;28;20259;-75
2021/03/08 09:58:38;;;;;;;15.77;11.77;;;13.90;99.90;;;;;;4974175;28;20625;-76
2021/03/08 10:01:15;;;;;;;15.95;11.45;;;13.80;99.90;;;;;;4973664;28;20220;-75
2021/03/08 10:03:41;;;;;;;14.27;9.98;;;14.00;99.90;;;;;;4973786;28;20205;-80
2021/03/08 10:06:08;;;;;;;14.27;11.07;;;13.60;99.90;;;;;;4973067;28;20241;-75
2021/03/08 10:08:34;;;;;;;13.50;9.50;;;13.40;99.90;;;;;;4973943;28;20201;-75
2021/03/08 10:11:01;;;;;;;11.45;10.23;;;13.50;99.90;;;;;;4971012;28;20720;-76
2021/03/08 10:13:28;;;;;;;18.55;10.80;;;13.00;99.90;;;;;;4973332;28;20221;-76
2021/03/08 10:15:55;;;;;;;14.15;10.38;;;12.80;99.90;;;;;;4974239;28;20578;-76
2021/03/08 10:18:24;;;;;;;14.07;11.48;;;12.50;99.90;;;;;;4973054;28;20209;-74
2021/03/08 10:20:54;;;;;;;12.90;9.90;;;12.20;99.90;;;;;;4973967;28;20233;-76
2021/03/08 10:23:23;;;;;;;14.00;10.43;;;12.30;99.90;;;;;;4973337;28;20210;-74
2021/03/08 10:25:50;;;;;;;16.75;11.73;;;12.20;99.90;;;;;;4973816;28;20316;-74
2021/03/08 10:28:17;;;;;;;17.27;13.05;;;12.20;99.90;;;;;;4973003;28;20214;-73
2021/03/08 10:30:45;;;;;;;16.67;10.75;;;12.10;99.90;;;;;;4973359;28;20232;-74
2021/03/08 10:33:13;;;;;;;15.43;11.03;;;12.40;99.90;;;;;;4972751;28;20210;-74
2021/03/08 10:35:44;;;;;;;13.05;10.60;;;12.50;99.90;;;;;;4972451;28;20650;-74
2021/03/08 10:38:11;;;;;;;12.90;11.30;;;12.80;99.90;;;;;;4973201;28;20224;-76
2021/03/08 10:40:38;;;;;;;12.88;10.60;;;13.10;99.90;;;;;;4971089;28;21259;-76
2021/03/08 10:43:05;;;;;;;14.48;10.45;;;13.50;99.90;;;;;;4971884;28;20217;-76
2021/03/08 10:45:32;;;;;;;17.95;10.73;;;13.70;99.90;;;;;;4973059;28;20232;-75
2021/03/08 10:48:07;;;;;;;13.93;9.77;;;14.00;99.90;;;;;;4971250;28;20216;-75
2021/03/08 10:50:44;;;;;;;10.75;8.95;;;14.10;99.90;;;;;;4966458;28;20584;-76
2021/03/08 10:53:12;;;;;;;12.35;9.65;;;14.40;99.90;;;;;;4967062;28;20264;-75
2021/03/08 10:55:38;;;;;;;22.52;10.80;;;14.60;99.90;;;;;;4972323;28;20209;-75
2021/03/08 10:58:05;;;;;;;13.68;10.27;;;14.70;99.90;;;;;;4969983;28;20365;-75
2021/03/08 11:00:32;;;;;;;12.52;9.15;;;14.60;99.90;;;;;;4964680;28;20221;-76
2021/03/08 11:03:00;;;;;;;16.00;9.30;;;14.80;99.90;;;;;;4970169;28;20217;-76
2021/03/08 11:05:28;;;;;;;12.43;9.57;;;14.50;99.90;;;;;;4971854;28;20210;-76
2021/03/08 11:07:55;;;;;;;16.77;11.57;;;14.20;99.90;;;;;;4970571;28;20217;-76
2021/03/08 11:10:38;;;;;;;21.17;11.15;;;13.60;99.90;;;;;;4969959;28;20705;-76
2021/03/08 11:13:06;;;;;;;15.35;11.20;;;12.80;99.90;;;;;;4970087;28;20209;-75
2021/03/08 11:15:33;;;;;;;15.73;11.10;;;12.60;99.90;;;;;;4972667;28;20264;-77
2021/03/08 11:18:00;;;;;;;18.75;12.80;;;12.50;99.90;;;;;;4971853;28;20205;-78
2021/03/08 11:20:29;;;;;;;16.52;11.57;;;12.70;99.90;;;;;;4972381;28;20206;-77
2021/03/08 11:23:01;;;;;;;17.75;11.15;;;12.60;99.90;;;;;;4972374;28;20737;-75
2021/03/08 11:25:30;;;;;;;17.42;12.43;;;12.50;99.90;;;;;;4970465;28;20205;-74
2021/03/08 11:27:58;;;;;;;16.48;11.38;;;12.50;99.90;;;;;;4968982;28;20683;-74
2021/03/08 11:30:25;;;;;;;18.73;10.75;;;12.80;99.90;;;;;;4967217;28;20206;-75
2021/03/08 11:32:53;;;;;;;17.08;11.75;;;13.50;99.90;;;;;;4972097;28;20297;-74
2021/03/08 11:35:23;;;;;;;68.25;44.13;;;14.10;99.90;;;;;;4971443;28;20272;-77
2021/03/08 11:37:52;;;;;;;19.05;12.85;;;14.50;99.90;;;;;;4971006;28;20213;-75
2021/03/08 11:40:20;;;;;;;15.27;9.88;;;14.50;99.90;;;;;;4970860;28;20681;-75
2021/03/08 11:42:47;;;;;;;15.35;8.90;;;14.40;99.90;;;;;;4971728;28;20268;-75
2021/03/08 11:45:15;;;;;;;15.68;10.05;;;14.10;99.90;;;;;;4971708;28;20216;-77
2021/03/08 11:47:41;;;;;;;12.63;8.95;;;13.60;99.90;;;;;;4971772;28;20598;-75
2021/03/08 11:50:09;;;;;;;13.55;9.98;;;13.90;99.90;;;;;;4971611;28;20240;-76
2021/03/08 11:52:36;;;;;;;11.75;8.80;;;13.80;99.90;;;;;;4972114;28;20236;-76
2021/03/08 11:55:04;;;;;;;21.70;11.30;;;13.60;99.90;;;;;;4971267;28;20214;-75
2021/03/08 11:57:31;;;;;;;15.35;12.15;;;13.40;99.90;;;;;;4972104;28;20209;-75
2021/03/08 11:59:57;;;;;;;15.80;10.88;;;13.30;99.90;;;;;;4971830;28;20212;-75
2021/03/08 12:02:24;;;;;;;16.67;10.80;;;13.60;99.90;;;;;;4971817;28;20240;-75
2021/03/08 12:04:50;;;;;;;14.15;10.32;;;13.30;99.90;;;;;;4971733;28;20256;-75
2021/03/08 12:07:16;;;;;;;14.30;10.15;;;13.50;99.90;;;;;;4971786;28;20210;-76
2021/03/08 12:09:43;;;;;;;14.55;10.90;;;13.60;99.90;;;;;;4970653;28;20213;-74
2021/03/08 12:12:11;;;;;;;17.08;10.00;;;13.30;99.90;;;;;;4971476;28;20248;-75
2021/03/08 12:14:37;;;;;;;15.52;11.38;;;13.20;99.90;;;;;;4971232;28;20267;-75
2021/03/08 12:17:04;;;;;;;16.50;12.30;;;13.40;99.90;;;;;;4969278;28;20256;-75
2021/03/08 12:19:30;;;;;;;16.42;11.65;;;13.30;99.90;;;;;;4971205;28;20216;-75
2021/03/08 12:21:59;;;;;;;16.70;12.77;;;13.30;99.90;;;;;;4971351;28;20272;-75
2021/03/08 12:24:25;;;;;;;20.08;12.90;;;13.10;99.90;;;;;;4971966;28;20202;-75
2021/03/08 12:26:52;;;;;;;16.30;10.13;;;13.00;99.90;;;;;;4971551;28;20220;-76
2021/03/08 12:29:19;;;;;;;17.30;11.27;;;12.90;99.90;;;;;;4971015;28;20225;-76
2021/03/08 12:31:45;;;;;;;16.85;11.43;;;13.00;99.90;;;;;;4971513;28;20229;-75
2021/03/08 12:34:12;;;;;;;17.27;10.88;;;13.20;99.90;;;;;;4968993;28;20212;-75
2021/03/08 12:36:38;;;;;;;17.92;11.23;;;13.50;99.90;;;;;;4970628;28;20205;-75
2021/03/08 12:39:05;;;;;;;17.08;10.90;;;13.70;99.90;;;;;;4970271;28;20221;-75
2021/03/08 12:41:32;;;;;;;14.20;9.07;;;13.80;99.90;;;;;;4969065;28;20213;-76
2021/03/08 12:43:59;;;;;;;15.88;8.38;;;13.90;99.90;;;;;;4969101;28;20213;-75
2021/03/08 12:46:26;;;;;;;11.77;9.38;;;14.00;99.90;;;;;;4967727;28;20205;-74
2021/03/08 12:48:53;;;;;;;13.63;8.65;;;13.90;99.90;;;;;;4971376;28;20209;-75